Time;durP1;ratioP1;P1;durP2;ratioP2;P2;SDS_P1;SDS_P2;PMS_P1;PMS_P2;Temp;Humidity;BMP_temperature;BMP_pressure;BME280_temperature;BME280_humidity;BME280_pressure;Samples;Min_cycle;Max_cycle;Signal;HPM_P1;HPM_P2
2024/01/10 00:02:36;;;;;;;12.13;6.23;;;;;;;;;;6286402;28;24426;-65
2024/01/10 00:05:40;;;;;;;10.82;6.45;;;;;;;;;;6289776;28;24434;-65
2024/01/10 00:08:41;;;;;;;11.68;6.43;;;;;;;;;;6269315;28;24417;-65
2024/01/10 00:11:43;;;;;;;10.50;6.28;;;;;;;;;;6289158;28;24797;-65
2024/01/10 00:14:45;;;;;;;11.20;6.90;;;;;;;;;;6288842;28;24422;-65
2024/01/10 00:17:46;;;;;;;12.43;6.65;;;;;;;;;;6290663;28;24630;-65
2024/01/10 00:20:50;;;;;;;12.18;6.95;;;;;;;;;;6289250;28;24871;-65
2024/01/10 00:23:51;;;;;;;13.13;7.03;;;;;;;;;;6273092;28;24812;-65
2024/01/10 00:26:53;;;;;;;12.60;6.68;;;;;;;;;;6290120;28;24430;-65
2024/01/10 00:29:56;;;;;;;11.77;6.78;;;;;;;;;;6286569;28;24419;-64
2024/01/10 00:32:58;;;;;;;12.07;6.70;;;;;;;;;;6268573;28;24433;-67
2024/01/10 00:36:02;;;;;;;10.65;6.75;;;;;;;;;;6292067;28;24411;-64
2024/01/10 00:39:03;;;;;;;11.55;6.88;;;;;;;;;;6288251;28;24894;-65
2024/01/10 00:42:05;;;;;;;13.05;7.18;;;;;;;;;;6289725;28;24426;-65
2024/01/10 00:45:08;;;;;;;10.65;6.60;;;;;;;;;;6289488;28;24818;-65
2024/01/10 00:48:09;;;;;;;10.13;6.25;;;;;;;;;;6268818;28;24425;-65
2024/01/10 00:51:13;;;;;;;10.20;6.32;;;;;;;;;;6289090;28;24431;-65
2024/01/10 00:54:14;;;;;;;10.20;6.32;;;;;;;;;;6287578;28;24503;-65
2024/01/10 00:57:16;;;;;;;9.93;6.50;;;;;;;;;;6291112;28;24446;-65
2024/01/10 01:00:18;;;;;;;12.43;7.00;;;;;;;;;;6292522;28;24413;-64
2024/01/10 01:03:20;;;;;;;10.27;6.22;;;;;;;;;;6289980;28;24809;-63
2024/01/10 01:06:23;;;;;;;11.50;6.30;;;;;;;;;;6292937;28;24418;-63
2024/01/10 01:09:25;;;;;;;11.73;6.57;;;;;;;;;;6273859;28;24434;-63
2024/01/10 01:12:26;;;;;;;10.97;6.30;;;;;;;;;;6293663;28;24468;-64
2024/01/10 01:15:28;;;;;;;11.52;6.47;;;;;;;;;;6292143;28;24809;-63
2024/01/10 01:18:30;;;;;;;10.25;6.50;;;;;;;;;;6294909;28;24434;-63
2024/01/10 01:21:33;;;;;;;11.40;6.35;;;;;;;;;;6277854;28;24680;-63
2024/01/10 01:24:35;;;;;;;8.67;5.93;;;;;;;;;;6292636;28;24431;-63
2024/01/10 01:27:36;;;;;;;10.43;6.22;;;;;;;;;;6294666;28;24415;-63
2024/01/10 01:30:39;;;;;;;10.48;6.63;;;;;;;;;;6297064;28;24439;-63
2024/01/10 01:33:40;;;;;;;10.98;6.60;;;;;;;;;;6292207;28;24493;-64
2024/01/10 01:36:43;;;;;;;10.85;6.38;;;;;;;;;;6296240;28;24427;-65
2024/01/10 01:39:45;;;;;;;111.93;55.58;;;;;;;;;;6293845;28;24435;-63
2024/01/10 01:42:47;;;;;;;104.43;48.30;;;;;;;;;;6294358;28;24915;-62
2024/01/10 01:45:53;;;;;;;179.85;79.68;;;;;;;;;;6278520;28;24675;-63
2024/01/10 01:48:55;;;;;;;46.42;22.42;;;;;;;;;;6294129;28;24421;-63
2024/01/10 01:51:58;;;;;;;50.15;23.02;;;;;;;;;;6293208;28;24442;-64
2024/01/10 01:55:00;;;;;;;51.45;24.90;;;;;;;;;;6292974;28;24637;-63
2024/01/10 01:58:02;;;;;;;31.40;14.87;;;;;;;;;;6292694;28;24426;-63
2024/01/10 02:01:04;;;;;;;14.60;8.35;;;;;;;;;;6292346;28;24422;-63
2024/01/10 02:04:06;;;;;;;10.55;6.90;;;;;;;;;;6294456;28;24481;-64
2024/01/10 02:07:10;;;;;;;11.02;6.65;;;;;;;;;;6290967;28;24812;-63
2024/01/10 02:10:11;;;;;;;10.63;6.45;;;;;;;;;;6290666;28;24458;-64
2024/01/10 02:13:13;;;;;;;10.52;6.18;;;;;;;;;;6291878;28;24866;-64
2024/01/10 02:16:15;;;;;;;10.02;6.28;;;;;;;;;;6290565;28;24430;-64
2024/01/10 02:19:21;;;;;;;10.35;5.85;;;;;;;;;;6290942;28;24407;-64
2024/01/10 02:22:25;;;;;;;9.93;6.28;;;;;;;;;;6290052;28;24506;-64
2024/01/10 02:25:28;;;;;;;10.85;6.38;;;;;;;;;;6290533;28;24420;-64
2024/01/10 02:28:29;;;;;;;11.48;6.45;;;;;;;;;;6291266;28;24414;-64
2024/01/10 02:31:31;;;;;;;9.57;5.72;;;;;;;;;;6295719;28;24428;-64
2024/01/10 02:34:33;;;;;;;9.90;5.85;;;;;;;;;;6294225;28;24424;-64
2024/01/10 02:37:35;;;;;;;10.68;6.20;;;;;;;;;;6294427;28;24421;-64
2024/01/10 02:40:38;;;;;;;11.20;6.60;;;;;;;;;;6290848;28;24831;-64
2024/01/10 02:43:40;;;;;;;11.55;6.43;;;;;;;;;;6292930;28;25027;-64
2024/01/10 02:46:41;;;;;;;10.57;6.17;;;;;;;;;;6290444;28;24494;-64
2024/01/10 02:49:43;;;;;;;10.38;6.00;;;;;;;;;;6290781;28;24431;-63
2024/01/10 02:52:45;;;;;;;9.85;6.07;;;;;;;;;;6291853;28;24489;-64
2024/01/10 02:55:49;;;;;;;11.32;6.22;;;;;;;;;;6289287;28;24662;-63
2024/01/10 02:58:51;;;;;;;9.07;5.97;;;;;;;;;;6288095;28;24404;-64
2024/01/10 03:01:53;;;;;;;9.15;6.13;;;;;;;;;;6292828;28;24407;-64
2024/01/10 03:04:55;;;;;;;10.95;5.93;;;;;;;;;;6293254;28;24422;-64
2024/01/10 03:07:57;;;;;;;8.50;5.28;;;;;;;;;;6289884;28;24856;-63
2024/01/10 03:11:00;;;;;;;10.07;5.85;;;;;;;;;;6290638;28;24426;-64
2024/01/10 03:14:03;;;;;;;8.07;5.25;;;;;;;;;;6289978;28;24476;-66
2024/01/10 03:17:05;;;;;;;9.13;5.40;;;;;;;;;;6290828;28;24506;-63
2024/01/10 03:20:09;;;;;;;8.18;5.13;;;;;;;;;;6289992;28;24835;-63
2024/01/10 03:23:10;;;;;;;8.40;5.05;;;;;;;;;;6289371;28;24501;-64
2024/01/10 03:26:13;;;;;;;9.55;5.40;;;;;;;;;;6291344;28;24936;-64
2024/01/10 03:29:15;;;;;;;9.48;5.43;;;;;;;;;;6291702;28;24492;-63
2024/01/10 03:32:17;;;;;;;8.48;5.20;;;;;;;;;;6289591;28;24421;-63
2024/01/10 03:35:18;;;;;;;9.87;5.53;;;;;;;;;;6290115;28;24422;-64
2024/01/10 03:38:20;;;;;;;9.75;5.60;;;;;;;;;;6287751;28;24427;-63
2024/01/10 03:41:24;;;;;;;9.27;5.78;;;;;;;;;;6288746;28;24812;-64
2024/01/10 03:44:27;;;;;;;9.25;5.35;;;;;;;;;;6288522;28;24418;-64
2024/01/10 03:47:29;;;;;;;9.57;5.53;;;;;;;;;;6286361;28;24423;-63
2024/01/10 03:50:30;;;;;;;8.10;5.60;;;;;;;;;;6289633;28;24851;-64
2024/01/10 03:53:32;;;;;;;9.85;5.65;;;;;;;;;;6289991;28;24417;-63
2024/01/10 03:56:35;;;;;;;8.52;5.22;;;;;;;;;;6287620;28;24687;-64
2024/01/10 03:59:37;;;;;;;9.27;5.70;;;;;;;;;;6289503;28;24426;-64
2024/01/10 04:02:39;;;;;;;8.55;5.35;;;;;;;;;;6290127;28;24419;-65
2024/01/10 04:05:42;;;;;;;8.75;5.47;;;;;;;;;;6290805;28;24423;-64
2024/01/10 04:08:44;;;;;;;9.10;5.45;;;;;;;;;;6254404;28;24427;-64
2024/01/10 04:11:47;;;;;;;11.10;5.65;;;;;;;;;;6289301;28;24468;-64
2024/01/10 04:14:48;;;;;;;9.17;5.63;;;;;;;;;;6289853;28;24435;-63
2024/01/10 04:17:50;;;;;;;8.10;5.18;;;;;;;;;;6288708;28;24423;-64
2024/01/10 04:20:52;;;;;;;8.60;5.25;;;;;;;;;;6287423;28;24430;-63
2024/01/10 04:23:54;;;;;;;9.75;5.32;;;;;;;;;;6287918;28;24835;-70
2024/01/10 04:26:57;;;;;;;8.60;5.30;;;;;;;;;;6288228;28;24812;-71
2024/01/10 04:29:59;;;;;;;10.52;5.78;;;;;;;;;;6291164;28;24990;-70
2024/01/10 04:33:01;;;;;;;8.57;5.40;;;;;;;;;;6291984;28;24485;-71
2024/01/10 04:36:03;;;;;;;11.25;6.35;;;;;;;;;;6295508;28;24430;-71
2024/01/10 04:39:04;;;;;;;10.18;6.10;;;;;;;;;;6293117;28;24457;-70
2024/01/10 04:42:08;;;;;;;10.73;5.63;;;;;;;;;;6291679;28;24423;-70
2024/01/10 04:45:10;;;;;;;10.23;5.73;;;;;;;;;;6273827;28;24427;-71
2024/01/10 04:48:13;;;;;;;10.30;5.85;;;;;;;;;;6291164;28;24481;-71
2024/01/10 04:51:15;;;;;;;8.85;5.22;;;;;;;;;;6295341;28;24597;-72
2024/01/10 04:54:17;;;;;;;9.02;5.72;;;;;;;;;;6294496;28;24476;-71
2024/01/10 04:57:20;;;;;;;10.32;5.88;;;;;;;;;;6290782;28;25216;-71
2024/01/10 05:00:22;;;;;;;8.73;5.53;;;;;;;;;;6295057;28;24435;-71
2024/01/10 05:03:23;;;;;;;10.27;5.47;;;;;;;;;;6297155;28;24640;-70
2024/01/10 05:06:25;;;;;;;9.43;5.60;;;;;;;;;;6292382;28;24660;-70
2024/01/10 05:09:27;;;;;;;8.93;5.80;;;;;;;;;;6290994;28;24464;-70
2024/01/10 05:12:30;;;;;;;8.50;5.80;;;;;;;;;;6292422;28;24434;-70
2024/01/10 05:15:32;;;;;;;9.55;5.45;;;;;;;;;;6275110;28;24419;-71
2024/01/10 05:18:33;;;;;;;10.02;5.85;;;;;;;;;;6292006;28;25100;-71
2024/01/10 05:21:35;;;;;;;8.70;5.55;;;;;;;;;;6292753;28;24419;-71
2024/01/10 05:24:37;;;;;;;9.93;5.73;;;;;;;;;;6276627;28;24910;-71
2024/01/10 05:27:40;;;;;;;9.00;5.93;;;;;;;;;;6292588;28;24431;-71
2024/01/10 05:30:42;;;;;;;9.27;5.68;;;;;;;;;;6293760;28;24614;-70
2024/01/10 05:33:44;;;;;;;8.55;5.18;;;;;;;;;;6295003;28;24434;-64
2024/01/10 05:36:45;;;;;;;8.95;5.53;;;;;;;;;;6293387;28;24481;-64
2024/01/10 05:39:47;;;;;;;8.95;5.75;;;;;;;;;;6293618;28;24451;-64
2024/01/10 05:42:51;;;;;;;9.32;5.57;;;;;;;;;;6293561;28;24487;-64
2024/01/10 05:45:53;;;;;;;10.07;6.03;;;;;;;;;;6292649;28;24430;-64
2024/01/10 05:48:55;;;;;;;10.30;5.90;;;;;;;;;;6297008;28;24839;-64
2024/01/10 05:51:56;;;;;;;9.75;5.63;;;;;;;;;;6294015;28;24442;-66
2024/01/10 05:54:58;;;;;;;9.13;5.78;;;;;;;;;;6290645;28;24442;-63
2024/01/10 05:58:02;;;;;;;9.60;5.80;;;;;;;;;;6287803;28;24438;-65
2024/01/10 06:01:04;;;;;;;9.23;5.85;;;;;;;;;;6296888;28;24458;-64
2024/01/10 06:04:06;;;;;;;9.63;5.93;;;;;;;;;;6295670;28;24718;-64
2024/01/10 06:07:08;;;;;;;11.00;5.93;;;;;;;;;;6294804;28;24534;-64
2024/01/10 06:10:11;;;;;;;10.60;5.57;;;;;;;;;;6293642;28;24446;-64
2024/01/10 06:13:14;;;;;;;8.68;5.38;;;;;;;;;;6290889;28;24451;-64
2024/01/10 06:16:16;;;;;;;10.00;6.35;;;;;;;;;;6291997;28;24423;-65
2024/01/10 06:19:18;;;;;;;9.85;5.57;;;;;;;;;;6294868;28;24399;-64
2024/01/10 06:22:24;;;;;;;11.80;5.85;;;;;;;;;;6293516;28;24411;-64
2024/01/10 06:25:27;;;;;;;8.73;5.68;;;;;;;;;;6289366;28;24417;-64
2024/01/10 06:28:30;;;;;;;10.25;6.03;;;;;;;;;;6292128;28;24441;-64
2024/01/10 06:31:32;;;;;;;10.32;5.93;;;;;;;;;;6292135;28;24422;-64
2024/01/10 06:34:34;;;;;;;8.97;5.33;;;;;;;;;;6292558;28;24698;-64
2024/01/10 06:37:35;;;;;;;10.18;5.68;;;;;;;;;;6291104;28;24423;-64
2024/01/10 06:40:37;;;;;;;9.98;5.90;;;;;;;;;;6293533;28;24621;-63
2024/01/10 06:43:41;;;;;;;12.10;5.90;;;;;;;;;;6291444;28;24874;-64
2024/01/10 06:46:43;;;;;;;10.82;6.32;;;;;;;;;;6273141;28;24481;-64
2024/01/10 06:49:45;;;;;;;11.90;6.20;;;;;;;;;;6290171;28;24445;-64
2024/01/10 06:52:48;;;;;;;11.65;6.40;;;;;;;;;;6277405;28;24426;-64
2024/01/10 06:55:49;;;;;;;10.35;5.78;;;;;;;;;;6291448;28;24534;-64
2024/01/10 06:58:54;;;;;;;10.70;5.70;;;;;;;;;;6293813;28;24468;-64
2024/01/10 07:01:57;;;;;;;9.53;5.60;;;;;;;;;;6293505;28;24411;-64
2024/01/10 07:04:58;;;;;;;9.97;5.80;;;;;;;;;;6293211;28;24493;-64
2024/01/10 07:08:02;;;;;;;9.18;5.75;;;;;;;;;;6291855;28;24430;-64
2024/01/10 07:11:04;;;;;;;9.90;5.32;;;;;;;;;;6289104;28;24473;-64
2024/01/10 07:14:07;;;;;;;12.02;5.90;;;;;;;;;;6289177;28;24485;-64
2024/01/10 07:17:09;;;;;;;9.90;5.90;;;;;;;;;;6290409;28;24450;-65
2024/01/10 07:20:12;;;;;;;9.83;6.20;;;;;;;;;;6289499;28;24443;-66
2024/01/10 07:23:14;;;;;;;10.13;5.85;;;;;;;;;;6270548;28;24923;-64
2024/01/10 07:26:16;;;;;;;10.52;6.18;;;;;;;;;;6288958;28;24418;-65
2024/01/10 07:29:19;;;;;;;11.30;6.25;;;;;;;;;;6285014;28;24473;-65
2024/01/10 07:32:21;;;;;;;9.93;5.75;;;;;;;;;;6284295;28;24447;-65
2024/01/10 07:35:22;;;;;;;10.68;6.18;;;;;;;;;;6285994;28;24490;-65
2024/01/10 07:38:24;;;;;;;10.52;5.80;;;;;;;;;;6288281;28;24422;-65
2024/01/10 07:41:26;;;;;;;11.65;6.32;;;;;;;;;;6290442;28;24652;-65
2024/01/10 07:44:29;;;;;;;11.27;6.13;;;;;;;;;;6288526;28;24422;-65
2024/01/10 07:47:31;;;;;;;10.65;6.47;;;;;;;;;;6287751;28;24422;-65
2024/01/10 07:50:33;;;;;;;10.00;5.70;;;;;;;;;;6287415;28;24458;-65
2024/01/10 07:53:36;;;;;;;10.73;6.10;;;;;;;;;;6290368;28;24644;-65
2024/01/10 07:56:37;;;;;;;10.40;6.15;;;;;;;;;;6291088;28;24481;-64
2024/01/10 07:59:40;;;;;;;11.40;6.45;;;;;;;;;;6288936;28;24428;-64
2024/01/10 08:02:42;;;;;;;12.07;6.75;;;;;;;;;;6275335;28;24443;-64
2024/01/10 08:05:46;;;;;;;11.35;6.10;;;;;;;;;;6291409;28;24426;-66
2024/01/10 08:08:48;;;;;;;10.55;5.93;;;;;;;;;;6287869;28;24427;-64
2024/01/10 08:11:50;;;;;;;10.87;6.30;;;;;;;;;;6292236;28;24430;-64
2024/01/10 08:14:53;;;;;;;12.00;6.60;;;;;;;;;;6273013;28;24462;-64
2024/01/10 08:17:55;;;;;;;11.30;6.83;;;;;;;;;;6288091;28;24561;-64
2024/01/10 08:20:56;;;;;;;11.88;6.72;;;;;;;;;;6291073;28;24614;-64
2024/01/10 08:23:58;;;;;;;11.98;6.78;;;;;;;;;;6287124;28;24894;-64
2024/01/10 08:27:00;;;;;;;11.88;7.05;;;;;;;;;;6289554;28;24407;-64
2024/01/10 08:30:04;;;;;;;10.43;6.60;;;;;;;;;;6286634;28;24420;-64
2024/01/10 08:33:06;;;;;;;9.27;6.38;;;;;;;;;;6289006;28;24431;-64
2024/01/10 08:36:09;;;;;;;11.55;7.15;;;;;;;;;;6271210;28;24968;-64
2024/01/10 08:39:11;;;;;;;11.38;6.70;;;;;;;;;;6289567;28;24502;-67
2024/01/10 08:42:13;;;;;;;11.52;6.90;;;;;;;;;;6286008;28;24437;-64
2024/01/10 08:45:16;;;;;;;10.55;6.78;;;;;;;;;;6271285;28;24419;-64
2024/01/10 08:48:18;;;;;;;11.38;6.85;;;;;;;;;;6289207;28;24415;-66
2024/01/10 08:51:20;;;;;;;9.57;6.50;;;;;;;;;;6288668;28;24481;-64
2024/01/10 08:54:22;;;;;;;11.18;6.97;;;;;;;;;;6290226;28;24453;-64
2024/01/10 08:57:26;;;;;;;13.23;7.43;;;;;;;;;;6289867;28;24680;-64
2024/01/10 09:00:29;;;;;;;13.32;7.38;;;;;;;;;;6290647;28;24433;-65
2024/01/10 09:03:31;;;;;;;10.67;7.30;;;;;;;;;;6289830;28;24426;-65
2024/01/10 09:06:33;;;;;;;11.20;6.70;;;;;;;;;;6285986;28;24428;-66
2024/01/10 09:09:35;;;;;;;14.93;7.43;;;;;;;;;;6288975;28;24613;-64
2024/01/10 09:12:37;;;;;;;14.27;7.27;;;;;;;;;;6286701;28;24438;-64
2024/01/10 09:15:40;;;;;;;11.48;7.25;;;;;;;;;;6288341;28;24427;-65
2024/01/10 09:18:42;;;;;;;11.10;7.32;;;;;;;;;;6287710;28;24660;-64
2024/01/10 09:21:43;;;;;;;12.35;6.88;;;;;;;;;;6292125;28;24873;-64
2024/01/10 09:24:46;;;;;;;10.03;6.57;;;;;;;;;;6293751;28;24626;-64
2024/01/10 09:27:47;;;;;;;11.50;6.55;;;;;;;;;;6276965;28;24649;-64
2024/01/10 09:30:51;;;;;;;12.55;6.75;;;;;;;;;;6291815;28;24493;-64
2024/01/10 09:33:53;;;;;;;9.27;5.80;;;;;;;;;;6290756;28;24431;-64
2024/01/10 09:36:55;;;;;;;13.48;6.22;;;;;;;;;;6273840;28;24434;-64
2024/01/10 09:39:56;;;;;;;11.18;6.28;;;;;;;;;;6290145;28;24411;-65
2024/01/10 09:42:58;;;;;;;11.73;6.53;;;;;;;;;;6294286;28;24621;-64
2024/01/10 09:46:02;;;;;;;11.23;6.53;;;;;;;;;;6292468;28;24777;-65
2024/01/10 09:49:04;;;;;;;10.13;6.17;;;;;;;;;;6292247;28;24859;-64
2024/01/10 09:52:09;;;;;;;10.90;6.22;;;;;;;;;;6272913;28;24995;-64
2024/01/10 09:55:12;;;;;;;10.23;6.07;;;;;;;;;;6289531;28;24929;-64
2024/01/10 09:58:14;;;;;;;11.90;6.63;;;;;;;;;;6292687;28;24423;-64
2024/01/10 10:01:18;;;;;;;11.50;6.57;;;;;;;;;;6294495;28;24427;-64
2024/01/10 10:04:21;;;;;;;10.25;6.35;;;;;;;;;;6294335;28;25093;-64
2024/01/10 10:07:23;;;;;;;10.02;6.00;;;;;;;;;;6291072;28;24494;-64
2024/01/10 10:10:24;;;;;;;14.57;7.05;;;;;;;;;;6292395;28;24446;-64
2024/01/10 10:13:27;;;;;;;10.60;6.60;;;;;;;;;;6291946;28;24414;-71
2024/01/10 10:16:30;;;;;;;12.00;6.87;;;;;;;;;;6290156;28;24495;-74
2024/01/10 10:19:32;;;;;;;9.70;6.22;;;;;;;;;;6288902;28;24827;-74
2024/01/10 10:22:34;;;;;;;10.70;6.20;;;;;;;;;;6293618;28;24425;-72
2024/01/10 10:25:37;;;;;;;10.15;6.63;;;;;;;;;;6289839;28;24422;-71
2024/01/10 10:28:41;;;;;;;13.60;6.87;;;;;;;;;;6290099;28;24429;-72
2024/01/10 10:31:48;;;;;;;11.87;6.70;;;;;;;;;;6287939;28;24426;-72
2024/01/10 10:34:50;;;;;;;11.45;6.60;;;;;;;;;;6293155;28;24668;-72
2024/01/10 10:37:52;;;;;;;11.63;6.38;;;;;;;;;;6290208;28;24508;-72
2024/01/10 10:40:55;;;;;;;10.57;6.50;;;;;;;;;;6292090;28;24744;-73
2024/01/10 10:43:57;;;;;;;11.18;6.63;;;;;;;;;;6290417;28;24502;-72
2024/01/10 10:47:03;;;;;;;9.98;6.25;;;;;;;;;;6289619;28;24609;-72
2024/01/10 10:50:05;;;;;;;10.48;7.10;;;;;;;;;;6274295;28;24563;-72
2024/01/10 10:53:07;;;;;;;10.25;6.55;;;;;;;;;;6289162;28;24768;-72
2024/01/10 10:56:09;;;;;;;13.52;7.03;;;;;;;;;;6290221;28;24410;-72
2024/01/10 10:59:11;;;;;;;10.37;6.70;;;;;;;;;;6292046;28;24419;-72
2024/01/10 11:02:21;;;;;;;10.15;6.53;;;;;;;;;;6289888;28;24434;-70
2024/01/10 11:05:23;;;;;;;11.77;6.80;;;;;;;;;;6288943;28;24830;-71
2024/01/10 11:08:26;;;;;;;13.40;7.25;;;;;;;;;;6291421;28;24419;-72
2024/01/10 11:11:39;;;;;;;12.45;6.90;;;;;;;;;;6293590;28;24505;-72
2024/01/10 11:14:53;;;;;;;11.55;6.72;;;;;;;;;;6293075;28;24469;-71
2024/01/10 11:18:11;;;;;;;11.35;6.70;;;;;;;;;;6273553;28;24651;-72
2024/01/10 11:21:24;;;;;;;10.85;6.72;;;;;;;;;;6287956;28;24839;-72
2024/01/10 11:24:26;;;;;;;12.05;7.20;;;;;;;;;;6288962;28;24490;-74
2024/01/10 11:27:28;;;;;;;11.67;6.80;;;;;;;;;;6290558;28;24479;-71
2024/01/10 11:30:37;;;;;;;12.98;7.07;;;;;;;;;;6291365;28;25029;-71
2024/01/10 11:33:43;;;;;;;13.57;8.07;;;;;;;;;;6290598;28;24517;-72
2024/01/10 11:37:10;;;;;;;12.75;7.50;;;;;;;;;;6287785;28;24897;-72
2024/01/10 11:40:13;;;;;;;11.38;7.40;;;;;;;;;;6291736;28;24415;-71
2024/01/10 11:43:15;;;;;;;12.60;7.28;;;;;;;;;;6288057;28;24792;-72
2024/01/10 11:46:18;;;;;;;11.60;6.93;;;;;;;;;;6290221;28;24518;-71
2024/01/10 11:49:22;;;;;;;10.00;6.30;;;;;;;;;;6288584;28;24415;-71
2024/01/10 11:52:24;;;;;;;11.10;7.03;;;;;;;;;;6288281;28;24424;-71
2024/01/10 11:55:47;;;;;;;10.82;6.97;;;;;;;;;;6290457;28;24480;-72
2024/01/10 11:58:56;;;;;;;12.35;7.43;;;;;;;;;;6290011;28;24820;-72
2024/01/10 12:01:58;;;;;;;11.70;7.55;;;;;;;;;;6288987;28;24823;-72
2024/01/10 12:05:02;;;;;;;12.77;7.57;;;;;;;;;;6289144;28;24453;-72
2024/01/10 12:08:06;;;;;;;11.50;7.03;;;;;;;;;;6289541;28;24496;-71
2024/01/10 12:11:08;;;;;;;13.13;7.30;;;;;;;;;;6287531;28;24415;-73
2024/01/10 12:14:10;;;;;;;11.38;7.45;;;;;;;;;;6289894;28;24419;-74
2024/01/10 12:17:12;;;;;;;12.82;7.53;;;;;;;;;;6289536;28;24625;-71
2024/01/10 12:20:16;;;;;;;10.77;7.13;;;;;;;;;;6286516;28;24843;-71
2024/01/10 12:23:18;;;;;;;14.35;7.80;;;;;;;;;;6286790;28;24602;-72
2024/01/10 12:26:20;;;;;;;12.35;7.78;;;;;;;;;;6288403;28;24419;-71
2024/01/10 12:29:22;;;;;;;13.25;7.97;;;;;;;;;;6271983;28;24564;-71
2024/01/10 12:32:24;;;;;;;12.45;7.68;;;;;;;;;;6292504;28;24835;-71
2024/01/10 12:35:27;;;;;;;11.00;6.97;;;;;;;;;;6289964;28;24886;-64
2024/01/10 12:38:29;;;;;;;12.70;7.40;;;;;;;;;;6288305;28;24614;-64
2024/01/10 12:41:31;;;;;;;11.02;7.30;;;;;;;;;;6289956;28;24792;-64
2024/01/10 12:44:33;;;;;;;13.60;8.05;;;;;;;;;;6292051;28;24480;-63
2024/01/10 12:47:35;;;;;;;11.95;7.35;;;;;;;;;;6270538;28;24477;-64
2024/01/10 12:50:39;;;;;;;14.23;7.65;;;;;;;;;;6287052;28;24672;-64
2024/01/10 12:53:42;;;;;;;11.20;7.65;;;;;;;;;;6289934;28;24921;-64
2024/01/10 12:56:45;;;;;;;12.07;7.55;;;;;;;;;;6296857;28;24601;-64
2024/01/10 12:59:47;;;;;;;12.32;7.90;;;;;;;;;;6293140;28;24427;-64
2024/01/10 13:02:49;;;;;;;11.68;7.88;;;;;;;;;;6292477;28;24423;-64
2024/01/10 13:05:53;;;;;;;11.55;7.68;;;;;;;;;;6276307;28;24486;-64
2024/01/10 13:08:54;;;;;;;12.27;7.80;;;;;;;;;;6293854;28;24460;-64
2024/01/10 13:11:56;;;;;;;13.30;8.30;;;;;;;;;;6292244;28;24816;-65
2024/01/10 13:14:58;;;;;;;12.60;7.93;;;;;;;;;;6292109;28;24488;-64
2024/01/10 13:18:00;;;;;;;13.82;7.70;;;;;;;;;;6293333;28;24610;-64
2024/01/10 13:21:03;;;;;;;11.25;7.40;;;;;;;;;;6275545;28;24482;-64
2024/01/10 13:24:05;;;;;;;12.83;8.30;;;;;;;;;;6292488;28;24649;-65
2024/01/10 13:27:09;;;;;;;12.50;7.60;;;;;;;;;;6296594;28;25079;-64
2024/01/10 13:30:12;;;;;;;12.27;7.80;;;;;;;;;;6291938;28;24847;-64
2024/01/10 13:33:14;;;;;;;11.77;8.00;;;;;;;;;;6277172;28;24484;-64
2024/01/10 13:36:17;;;;;;;13.65;8.40;;;;;;;;;;6293819;28;24442;-64
2024/01/10 13:39:19;;;;;;;13.35;8.05;;;;;;;;;;6286496;28;24420;-64
2024/01/10 13:42:21;;;;;;;12.75;8.60;;;;;;;;;;6291473;28;24485;-65
2024/01/10 13:45:22;;;;;;;12.77;8.65;;;;;;;;;;6290387;28;24622;-71
2024/01/10 13:48:24;;;;;;;12.43;7.78;;;;;;;;;;6291455;28;24712;-70
2024/01/10 13:51:27;;;;;;;12.10;7.80;;;;;;;;;;6291482;28;24423;-71
2024/01/10 13:54:29;;;;;;;12.65;8.00;;;;;;;;;;6291930;28;24496;-71
2024/01/10 13:57:32;;;;;;;11.38;7.38;;;;;;;;;;6292102;28;24414;-71
2024/01/10 14:00:34;;;;;;;13.82;8.18;;;;;;;;;;6292222;28;24510;-70
2024/01/10 14:03:36;;;;;;;11.80;7.43;;;;;;;;;;6294413;28;24415;-71
2024/01/10 14:06:39;;;;;;;11.93;7.63;;;;;;;;;;6292892;28;24457;-70
2024/01/10 14:09:41;;;;;;;13.13;7.85;;;;;;;;;;6270042;28;24422;-72
2024/01/10 14:12:43;;;;;;;12.00;7.55;;;;;;;;;;6291444;28;24441;-72
2024/01/10 14:15:45;;;;;;;13.10;8.10;;;;;;;;;;6291458;28;24477;-71
2024/01/10 14:18:47;;;;;;;13.02;8.07;;;;;;;;;;6291569;28;24652;-71
2024/01/10 14:21:50;;;;;;;13.45;7.78;;;;;;;;;;6276861;28;24867;-71
2024/01/10 14:24:54;;;;;;;12.67;8.00;;;;;;;;;;6291145;28;24498;-72
2024/01/10 14:27:55;;;;;;;12.80;7.97;;;;;;;;;;6294911;28;24430;-71
2024/01/10 14:30:57;;;;;;;12.57;8.18;;;;;;;;;;6293691;28;24427;-72
2024/01/10 14:33:59;;;;;;;12.83;8.13;;;;;;;;;;6273492;28;24511;-72
2024/01/10 14:37:02;;;;;;;13.20;8.63;;;;;;;;;;6293698;28;24477;-72
2024/01/10 14:40:06;;;;;;;13.60;8.30;;;;;;;;;;6290829;28;24774;-72
2024/01/10 14:43:08;;;;;;;12.67;8.20;;;;;;;;;;6293460;28;24816;-72
2024/01/10 14:46:10;;;;;;;12.98;8.27;;;;;;;;;;6294849;28;24507;-70
2024/01/10 14:49:11;;;;;;;12.98;8.18;;;;;;;;;;6295850;28;24494;-71
2024/01/10 14:52:14;;;;;;;13.23;7.75;;;;;;;;;;6275523;28;24634;-72
2024/01/10 14:55:16;;;;;;;12.50;8.10;;;;;;;;;;6289420;28;24402;-64
2024/01/10 14:58:19;;;;;;;12.63;8.23;;;;;;;;;;6276408;28;24407;-64
2024/01/10 15:01:21;;;;;;;12.07;7.68;;;;;;;;;;6275012;28;24480;-64
2024/01/10 15:04:22;;;;;;;13.45;8.63;;;;;;;;;;6273527;28;24419;-64
2024/01/10 15:07:26;;;;;;;13.65;8.43;;;;;;;;;;6273498;28;24811;-64
2024/01/10 15:10:28;;;;;;;12.33;8.03;;;;;;;;;;6292655;28;24420;-64
2024/01/10 15:13:30;;;;;;;14.00;8.18;;;;;;;;;;6289692;28;24415;-64
2024/01/10 15:16:31;;;;;;;12.18;8.43;;;;;;;;;;6291828;28;24419;-64
2024/01/10 15:19:33;;;;;;;12.95;8.55;;;;;;;;;;6276553;28;24481;-63
2024/01/10 15:22:38;;;;;;;13.25;8.18;;;;;;;;;;6290173;28;25022;-64
2024/01/10 15:25:40;;;;;;;14.45;8.98;;;;;;;;;;6289366;28;24692;-64
2024/01/10 15:28:41;;;;;;;14.75;8.77;;;;;;;;;;6271487;28;24836;-64
2024/01/10 15:31:43;;;;;;;12.50;8.05;;;;;;;;;;6289743;28;24834;-63
2024/01/10 15:34:45;;;;;;;12.70;7.67;;;;;;;;;;6288006;28;24884;-64
2024/01/10 15:37:48;;;;;;;11.85;7.88;;;;;;;;;;6288970;28;24423;-64
2024/01/10 15:40:50;;;;;;;13.73;8.10;;;;;;;;;;6289209;28;24443;-64
2024/01/10 15:43:52;;;;;;;14.88;8.45;;;;;;;;;;6290737;28;24438;-64
2024/01/10 15:46:57;;;;;;;12.27;7.70;;;;;;;;;;6284956;28;24708;-65
2024/01/10 15:49:59;;;;;;;13.33;8.17;;;;;;;;;;6290069;28;24435;-64
2024/01/10 15:53:02;;;;;;;12.85;7.65;;;;;;;;;;6273756;28;24672;-64
2024/01/10 15:56:05;;;;;;;119.20;55.45;;;;;;;;;;6288190;28;24826;-64
2024/01/10 15:59:07;;;;;;;137.70;58.00;;;;;;;;;;6289762;28;24813;-64
2024/01/10 16:02:09;;;;;;;48.00;22.90;;;;;;;;;;6286184;28;24447;-64
2024/01/10 16:05:10;;;;;;;92.43;45.05;;;;;;;;;;6274968;28;24606;-64
2024/01/10 16:08:14;;;;;;;88.80;39.05;;;;;;;;;;6294881;28;24423;-64
2024/01/10 16:11:16;;;;;;;41.40;20.55;;;;;;;;;;6287608;28;24446;-64
2024/01/10 16:14:17;;;;;;;39.92;18.85;;;;;;;;;;6290791;28;24418;-64
2024/01/10 16:17:19;;;;;;;18.85;10.20;;;;;;;;;;6289789;28;24429;-64
2024/01/10 16:20:21;;;;;;;13.95;7.82;;;;;;;;;;6288645;28;24432;-64
2024/01/10 16:23:24;;;;;;;13.20;8.02;;;;;;;;;;6289941;28;24696;-64
2024/01/10 16:26:25;;;;;;;14.20;8.45;;;;;;;;;;6289218;28;24509;-64
2024/01/10 16:29:27;;;;;;;12.95;8.25;;;;;;;;;;6289527;28;24415;-64
2024/01/10 16:32:29;;;;;;;12.98;7.78;;;;;;;;;;6274236;28;24430;-64
2024/01/10 16:35:31;;;;;;;12.65;7.50;;;;;;;;;;6291881;28;24904;-64
2024/01/10 16:38:34;;;;;;;13.43;7.90;;;;;;;;;;6294017;28;24418;-65
2024/01/10 16:41:35;;;;;;;13.73;7.60;;;;;;;;;;6291779;28;24430;-64
2024/01/10 16:44:39;;;;;;;11.77;7.00;;;;;;;;;;6297978;28;24415;-64
2024/01/10 16:47:41;;;;;;;13.77;8.23;;;;;;;;;;6292868;28;24435;-64
2024/01/10 16:50:43;;;;;;;13.23;7.80;;;;;;;;;;6289331;28;24430;-65
2024/01/10 16:53:46;;;;;;;12.30;7.57;;;;;;;;;;6295536;28;24507;-64
2024/01/10 16:56:48;;;;;;;13.05;7.53;;;;;;;;;;6291900;28;24834;-64
2024/01/10 16:59:50;;;;;;;12.55;7.63;;;;;;;;;;6290683;28;24434;-65
2024/01/10 17:02:52;;;;;;;12.83;7.63;;;;;;;;;;6291273;28;24825;-64
2024/01/10 17:05:53;;;;;;;11.45;7.47;;;;;;;;;;6292705;28;24443;-64
2024/01/10 17:08:56;;;;;;;13.85;7.80;;;;;;;;;;6294045;28;24430;-65
2024/01/10 17:11:58;;;;;;;12.47;7.80;;;;;;;;;;6292869;28;24421;-64
2024/01/10 17:15:01;;;;;;;13.35;7.60;;;;;;;;;;6294249;28;24439;-64
2024/01/10 17:18:04;;;;;;;13.73;8.32;;;;;;;;;;6293689;28;24589;-64
2024/01/10 17:21:06;;;;;;;13.38;8.18;;;;;;;;;;6275279;28;24498;-64
2024/01/10 17:24:11;;;;;;;12.20;7.38;;;;;;;;;;6287941;28;24431;-64
2024/01/10 17:27:13;;;;;;;15.13;8.20;;;;;;;;;;6292047;28;24808;-64
2024/01/10 17:30:15;;;;;;;12.98;8.07;;;;;;;;;;6295742;28;24808;-64
2024/01/10 17:33:21;;;;;;;13.00;7.60;;;;;;;;;;6292750;28;24438;-66
2024/01/10 17:36:23;;;;;;;13.85;8.30;;;;;;;;;;6294670;28;24418;-64
2024/01/10 17:39:26;;;;;;;15.27;8.40;;;;;;;;;;6293178;28;24994;-64
2024/01/10 17:42:28;;;;;;;11.57;7.97;;;;;;;;;;6290903;28;24434;-64
2024/01/10 17:45:30;;;;;;;13.82;7.75;;;;;;;;;;6290630;28;24829;-64
2024/01/10 17:48:31;;;;;;;12.63;7.65;;;;;;;;;;6288712;28;24815;-64
2024/01/10 17:51:33;;;;;;;12.37;7.80;;;;;;;;;;6276008;28;24879;-64
2024/01/10 17:54:36;;;;;;;14.00;7.80;;;;;;;;;;6291137;28;24461;-63
2024/01/10 17:57:38;;;;;;;13.30;7.97;;;;;;;;;;6288907;28;24427;-64
2024/01/10 18:00:40;;;;;;;12.95;8.07;;;;;;;;;;6293224;28;24464;-64